createdAt,value
2023-03-15T00:02:08.255Z,11.87
2023-03-15T00:04:37.682Z,11.77
2023-03-15T00:07:07.540Z,11.65
2023-03-15T00:09:36.748Z,11.54
2023-03-15T00:12:06.335Z,11.53
2023-03-15T00:14:35.296Z,11.58
2023-03-15T00:17:04.587Z,11.59
2023-03-15T00:19:33.903Z,11.50
2023-03-15T00:22:03.133Z,11.38
2023-03-15T00:24:31.824Z,11.33
2023-03-15T00:27:00.710Z,11.38
2023-03-15T00:29:29.888Z,11.39
2023-03-15T00:31:59.752Z,11.35
2023-03-15T00:34:29.124Z,11.31
2023-03-15T00:36:58.298Z,11.29
2023-03-15T00:39:27.631Z,11.29
2023-03-15T00:41:59.842Z,11.18
2023-03-15T00:44:29.486Z,11.09
2023-03-15T00:46:58.500Z,11.01
2023-03-15T00:49:27.559Z,10.93
2023-03-15T00:51:56.464Z,10.91
2023-03-15T00:54:25.551Z,10.84
2023-03-15T00:56:54.929Z,10.77
2023-03-15T00:59:23.945Z,10.77
2023-03-15T01:01:53.021Z,10.75
2023-03-15T01:04:21.924Z,10.68
2023-03-15T01:06:50.856Z,10.61
2023-03-15T01:09:19.983Z,10.55
2023-03-15T01:11:48.792Z,10.46
2023-03-15T01:14:19.392Z,10.35
2023-03-15T01:16:48.504Z,10.29
2023-03-15T01:19:17.847Z,10.24
2023-03-15T01:21:48.323Z,10.23
2023-03-15T01:24:17.487Z,10.23
2023-03-15T01:26:46.911Z,10.24
2023-03-15T01:29:18.471Z,10.22
2023-03-15T01:31:47.443Z,10.17
2023-03-15T01:34:16.425Z,10.16
2023-03-15T01:36:45.179Z,10.06
2023-03-15T01:39:14.163Z,9.96
2023-03-15T01:41:43.610Z,9.85
2023-03-15T01:44:17.680Z,9.81
2023-03-15T01:46:46.992Z,9.83
2023-03-15T01:49:31.918Z,9.88
2023-03-15T01:52:13.351Z,9.92
2023-03-15T01:54:47.712Z,9.80
2023-03-15T01:57:23.576Z,9.66
2023-03-15T02:00:13.987Z,9.57
2023-03-15T02:02:48.542Z,9.55
2023-03-15T02:05:24.931Z,9.45
2023-03-15T02:07:54.921Z,9.37
2023-03-15T02:10:43.132Z,9.35
2023-03-15T02:13:17.516Z,9.36
2023-03-15T02:15:49.524Z,9.40
2023-03-15T02:18:18.238Z,9.37
2023-03-15T02:21:09.144Z,9.37
2023-03-15T02:23:38.140Z,9.36
2023-03-15T02:26:49.129Z,9.43
2023-03-15T02:29:18.023Z,9.44
2023-03-15T02:31:46.903Z,9.45
2023-03-15T02:34:16.118Z,9.50
2023-03-15T02:36:44.991Z,9.58
2023-03-15T02:39:16.806Z,9.64
2023-03-15T02:41:57.770Z,9.60
2023-03-15T02:44:36.544Z,9.56
2023-03-15T02:47:09.899Z,9.59
2023-03-15T02:49:43.849Z,9.67
2023-03-15T02:52:14.391Z,9.67
2023-03-15T02:54:46.150Z,9.66
2023-03-15T02:57:17.273Z,9.73
2023-03-15T02:59:46.215Z,9.78
2023-03-15T03:02:15.738Z,9.75
2023-03-15T03:04:44.591Z,9.75
2023-03-15T03:07:13.607Z,9.85
2023-03-15T03:09:42.978Z,10.01
2023-03-15T03:12:11.851Z,10.08
2023-03-15T03:14:43.733Z,10.09
2023-03-15T03:17:12.873Z,10.09
2023-03-15T03:19:41.617Z,10.13
2023-03-15T03:22:13.592Z,10.14
2023-03-15T03:24:46.364Z,10.11
2023-03-15T03:27:16.189Z,10.12
2023-03-15T03:29:45.249Z,10.16
2023-03-15T03:32:14.278Z,10.20
2023-03-15T03:34:48.981Z,10.22
2023-03-15T03:37:22.123Z,10.20
2023-03-15T03:39:53.303Z,10.13
2023-03-15T03:42:22.270Z,10.12
2023-03-15T03:44:51.468Z,10.15
2023-03-15T03:47:20.917Z,10.16
2023-03-15T03:49:49.812Z,10.18
2023-03-15T03:52:18.807Z,10.26
2023-03-15T03:54:47.945Z,10.29
2023-03-15T03:57:16.985Z,10.27
2023-03-15T03:59:45.954Z,10.17
2023-03-15T04:02:15.248Z,10.11
2023-03-15T04:04:44.340Z,10.12
2023-03-15T04:07:14.519Z,10.10
2023-03-15T04:09:44.289Z,10.01
2023-03-15T04:12:13.643Z,10.00
2023-03-15T04:14:42.522Z,10.03
2023-03-15T04:17:11.976Z,10.01
2023-03-15T04:19:40.870Z,9.99
2023-03-15T04:22:09.680Z,9.93
2023-03-15T04:24:40.160Z,9.86
2023-03-15T04:27:09.345Z,9.81
2023-03-15T04:29:38.022Z,9.76
2023-03-15T04:32:07.156Z,9.69
2023-03-15T04:34:39.356Z,9.68
2023-03-15T04:37:08.151Z,9.65
2023-03-15T04:39:36.889Z,9.54
2023-03-15T04:42:05.789Z,9.41
2023-03-15T04:44:34.655Z,9.34
2023-03-15T04:47:03.656Z,9.26
2023-03-15T04:49:32.384Z,9.21
2023-03-15T04:52:01.383Z,9.23
2023-03-15T04:54:30.964Z,9.23
2023-03-15T04:56:59.836Z,9.23
2023-03-15T04:59:28.631Z,9.26
2023-03-15T05:01:57.731Z,9.31
2023-03-15T05:04:26.191Z,9.36
2023-03-15T05:06:55.009Z,9.35
2023-03-15T05:09:23.988Z,9.30
2023-03-15T05:11:52.556Z,9.22
2023-03-15T05:14:21.394Z,9.17
2023-03-15T05:16:52.744Z,9.09
2023-03-15T05:19:22.312Z,8.95
2023-03-15T05:21:51.185Z,8.90
2023-03-15T05:24:19.949Z,8.88
2023-03-15T05:26:48.661Z,8.84
2023-03-15T05:29:17.586Z,8.87
2023-03-15T05:31:46.572Z,8.89
2023-03-15T05:34:15.873Z,8.92
2023-03-15T05:36:44.980Z,8.99
2023-03-15T05:39:17.124Z,9.05
2023-03-15T05:41:45.869Z,9.00
2023-03-15T05:44:14.872Z,8.98
2023-03-15T05:46:43.862Z,8.99
2023-03-15T05:49:12.645Z,8.95
2023-03-15T05:51:42.041Z,8.89
2023-03-15T05:54:11.511Z,8.94
2023-03-15T05:56:40.808Z,9.09
2023-03-15T05:59:09.661Z,9.25
2023-03-15T06:01:38.887Z,9.40
2023-03-15T06:04:07.993Z,9.57
2023-03-15T06:06:36.950Z,9.77
2023-03-15T06:09:06.217Z,9.89
2023-03-15T06:11:35.425Z,9.91
2023-03-15T06:14:05.092Z,9.94
2023-03-15T06:16:34.562Z,9.95
2023-03-15T06:19:04.181Z,9.94
2023-03-15T06:21:33.597Z,10.02
2023-03-15T06:24:02.805Z,10.04
2023-03-15T06:26:32.125Z,10.18
2023-03-15T06:29:01.423Z,10.34
2023-03-15T06:31:30.758Z,11.27
2023-03-15T06:34:00.537Z,11.84
2023-03-15T06:36:29.818Z,12.37
2023-03-15T06:38:59.137Z,13.29
2023-03-15T06:41:28.588Z,14.11
2023-03-15T06:43:58.231Z,14.62
2023-03-15T06:46:27.898Z,15.16
2023-03-15T06:48:57.137Z,15.78
2023-03-15T06:51:26.085Z,15.48
2023-03-15T06:53:55.225Z,15.52
2023-03-15T06:56:24.525Z,15.44
2023-03-15T06:58:53.809Z,15.83
2023-03-15T07:01:23.130Z,15.96
2023-03-15T07:03:52.506Z,17.07
2023-03-15T07:06:21.637Z,18.20
2023-03-15T07:08:50.533Z,18.96
2023-03-15T07:11:19.605Z,19.72
2023-03-15T07:13:48.447Z,20.59
2023-03-15T07:16:17.538Z,21.35
2023-03-15T07:18:46.631Z,22.03
2023-03-15T07:21:15.841Z,22.46
2023-03-15T07:23:45.024Z,22.85
2023-03-15T07:26:13.987Z,23.21
2023-03-15T07:28:45.406Z,23.72
2023-03-15T07:31:15.252Z,24.16
2023-03-15T07:33:44.676Z,24.60
2023-03-15T07:36:14.684Z,24.84
2023-03-15T07:38:43.835Z,25.06
2023-03-15T07:41:13.404Z,25.11
2023-03-15T07:43:43.468Z,24.97
2023-03-15T07:46:12.829Z,24.88
2023-03-15T07:48:42.021Z,25.01
2023-03-15T07:51:11.023Z,25.24
2023-03-15T07:53:40.288Z,24.76
2023-03-15T07:56:09.929Z,23.32
2023-03-15T07:58:38.871Z,22.35
2023-03-15T08:01:08.105Z,21.39
2023-03-15T08:03:37.148Z,21.24
2023-03-15T08:06:06.379Z,22.05
2023-03-15T08:08:35.718Z,21.11
2023-03-15T08:11:07.623Z,20.63
2023-03-15T08:13:37.163Z,20.91
2023-03-15T08:16:06.421Z,21.75
2023-03-15T08:18:35.806Z,23.04
2023-03-15T08:21:05.052Z,24.86
2023-03-15T08:23:34.416Z,26.32
2023-03-15T08:26:04.103Z,27.52
2023-03-15T08:28:33.744Z,28.49
2023-03-15T08:31:07.559Z,29.20
2023-03-15T08:33:37.188Z,28.92
2023-03-15T08:36:07.399Z,29.11
2023-03-15T08:38:36.554Z,29.26
2023-03-15T08:41:05.698Z,29.13
2023-03-15T08:43:34.878Z,28.66
2023-03-15T08:46:04.462Z,28.38
2023-03-15T08:48:33.984Z,29.13
2023-03-15T08:51:05.455Z,29.64
2023-03-15T08:53:34.410Z,30.44
2023-03-15T08:56:03.574Z,30.48
2023-03-15T08:58:32.700Z,31.01
2023-03-15T09:01:02.210Z,30.82
2023-03-15T09:03:33.301Z,31.17
2023-03-15T09:06:03.095Z,31.27
2023-03-15T09:08:33.865Z,32.11
2023-03-15T09:11:03.065Z,32.48
2023-03-15T09:13:32.264Z,32.91
2023-03-15T09:16:01.566Z,32.39
2023-03-15T09:18:31.420Z,32.95
2023-03-15T09:21:00.483Z,32.51
2023-03-15T09:23:29.900Z,31.95
2023-03-15T09:25:59.165Z,32.61
2023-03-15T09:28:28.864Z,32.93
2023-03-15T09:31:00.222Z,33.19
2023-03-15T09:33:29.623Z,32.89
2023-03-15T09:35:58.814Z,32.27
2023-03-15T09:38:28.149Z,31.00
2023-03-15T09:41:00.788Z,30.98
2023-03-15T09:43:42.346Z,30.88
2023-03-15T09:46:42.601Z,30.24
2023-03-15T09:49:22.876Z,27.83
2023-03-15T09:52:15.576Z,28.91
2023-03-15T09:55:11.728Z,28.15
2023-03-15T09:57:47.973Z,27.82
2023-03-15T10:00:34.133Z,28.94
2023-03-15T10:03:10.519Z,29.59
2023-03-15T10:05:47.420Z,30.85
2023-03-15T10:08:20.742Z,32.07
2023-03-15T10:10:52.833Z,31.83
2023-03-15T10:13:34.565Z,29.88
2023-03-15T10:16:10.560Z,30.58
2023-03-15T10:18:46.270Z,31.76
2023-03-15T10:21:49.368Z,30.20
2023-03-15T10:24:32.668Z,28.87
2023-03-15T10:27:16.686Z,29.38
2023-03-15T10:29:47.822Z,29.89
2023-03-15T10:32:19.909Z,29.58
2023-03-15T10:34:52.737Z,31.00
2023-03-15T10:37:25.711Z,32.46
2023-03-15T10:39:59.601Z,32.51
2023-03-15T10:42:34.286Z,32.72
2023-03-15T10:45:34.295Z,32.38
2023-03-15T10:48:03.894Z,30.07
2023-03-15T10:50:35.618Z,29.85
2023-03-15T10:53:18.464Z,28.63
2023-03-15T10:55:47.485Z,26.89
2023-03-15T10:58:31.864Z,26.19
2023-03-15T11:01:10.465Z,27.96
2023-03-15T11:03:41.750Z,29.76
2023-03-15T11:06:27.815Z,30.69
2023-03-15T11:09:19.647Z,31.87
2023-03-15T11:12:03.995Z,32.77
2023-03-15T11:14:44.298Z,33.08
2023-03-15T11:17:23.022Z,32.01
2023-03-15T11:20:00.195Z,31.61
2023-03-15T11:22:31.004Z,30.54
2023-03-15T11:25:00.595Z,29.09
2023-03-15T11:27:30.253Z,27.62
2023-03-15T11:30:02.110Z,26.46
2023-03-15T11:32:33.588Z,25.27
2023-03-15T11:35:07.947Z,24.21
2023-03-15T11:38:14.621Z,22.26
2023-03-15T11:40:50.453Z,20.83
2023-03-15T11:43:26.274Z,19.97
2023-03-15T11:45:59.521Z,19.45
2023-03-15T11:48:49.317Z,19.06
2023-03-15T11:51:18.884Z,19.14
2023-03-15T11:54:04.421Z,19.92
2023-03-15T11:56:55.594Z,21.69
2023-03-15T11:59:33.334Z,23.69
2023-03-15T12:02:14.601Z,24.46
2023-03-15T12:04:51.310Z,22.93
2023-03-15T12:07:20.535Z,21.83
2023-03-15T12:10:05.530Z,21.43
2023-03-15T12:12:37.374Z,21.26
2023-03-15T12:15:15.473Z,21.19
2023-03-15T12:17:44.488Z,23.44
2023-03-15T12:20:18.632Z,25.59
2023-03-15T12:23:15.621Z,26.98
2023-03-15T12:26:05.682Z,27.74
2023-03-15T12:29:04.476Z,26.47
2023-03-15T12:31:53.130Z,23.91
2023-03-15T12:34:37.759Z,23.25
2023-03-15T12:37:18.331Z,22.89
2023-03-15T12:39:59.583Z,22.22
2023-03-15T12:42:53.112Z,21.73
2023-03-15T12:45:27.989Z,21.05
2023-03-15T12:47:59.676Z,22.09
2023-03-15T12:50:48.443Z,21.51
2023-03-15T12:53:40.540Z,21.35
2023-03-15T12:56:33.439Z,21.02
2023-03-15T12:59:58.778Z,20.68
2023-03-15T13:02:44.618Z,19.85
2023-03-15T13:05:23.734Z,19.45
2023-03-15T13:07:52.891Z,19.15
2023-03-15T13:10:33.620Z,18.68
2023-03-15T13:13:31.219Z,18.10
2023-03-15T13:16:20.407Z,18.10
2023-03-15T13:19:06.921Z,20.23
2023-03-15T13:21:43.834Z,22.52
2023-03-15T13:24:24.668Z,23.83
2023-03-15T13:27:35.850Z,25.04
2023-03-15T13:30:31.658Z,24.01
2023-03-15T13:33:19.267Z,23.30
2023-03-15T13:35:56.650Z,23.68
2023-03-15T13:38:32.660Z,23.18
2023-03-15T13:41:05.183Z,22.15
2023-03-15T13:43:38.374Z,22.08
2023-03-15T13:46:08.924Z,23.00
2023-03-15T13:48:44.380Z,23.80
2023-03-15T13:51:31.098Z,24.09
2023-03-15T13:54:15.710Z,24.57
2023-03-15T13:56:56.689Z,25.66
2023-03-15T13:59:33.348Z,26.24
2023-03-15T14:02:06.700Z,26.26
2023-03-15T14:04:39.355Z,26.44
2023-03-15T14:07:23.635Z,26.52
2023-03-15T14:10:20.196Z,27.31
2023-03-15T14:12:50.430Z,26.93
2023-03-15T14:15:43.481Z,27.22
2023-03-15T14:18:18.433Z,26.91
2023-03-15T14:20:55.210Z,26.84
2023-03-15T14:23:26.699Z,26.16
2023-03-15T14:26:03.178Z,26.29
2023-03-15T14:28:33.971Z,26.73
2023-03-15T14:31:05.041Z,26.72
2023-03-15T14:33:41.153Z,27.15
2023-03-15T14:36:30.074Z,27.38
2023-03-15T14:39:00.255Z,27.57
2023-03-15T14:41:31.835Z,27.55
2023-03-15T14:44:03.958Z,27.09
2023-03-15T14:46:33.242Z,26.37
2023-03-15T14:49:02.877Z,25.25
2023-03-15T14:51:33.616Z,24.37
2023-03-15T14:54:04.897Z,23.14
2023-03-15T14:56:37.629Z,23.32
2023-03-15T14:59:13.744Z,22.93
2023-03-15T15:01:50.844Z,22.09
2023-03-15T15:04:23.267Z,21.46
2023-03-15T15:06:53.749Z,21.28
2023-03-15T15:09:26.187Z,21.71
2023-03-15T15:11:57.096Z,21.20
2023-03-15T15:14:26.714Z,20.86
2023-03-15T15:16:59.539Z,20.42
2023-03-15T15:19:29.508Z,20.05
2023-03-15T15:21:59.628Z,20.06
2023-03-15T15:24:29.366Z,20.04
2023-03-15T15:26:59.814Z,19.63
2023-03-15T15:29:29.407Z,19.09
2023-03-15T15:31:58.798Z,18.88
2023-03-15T15:34:29.641Z,19.14
2023-03-15T15:37:00.599Z,19.28
2023-03-15T15:39:30.177Z,19.06
2023-03-15T15:42:00.349Z,19.02
2023-03-15T15:44:30.650Z,19.42
2023-03-15T15:47:03.178Z,19.19
2023-03-15T15:49:32.930Z,19.54
2023-03-15T15:52:03.180Z,19.58
2023-03-15T15:54:36.639Z,20.06
2023-03-15T15:57:08.915Z,20.28
2023-03-15T15:59:39.657Z,20.50
2023-03-15T16:02:23.438Z,20.46
2023-03-15T16:04:53.235Z,20.41
2023-03-15T16:07:22.401Z,20.37
2023-03-15T16:09:58.665Z,20.13
2023-03-15T16:12:28.975Z,19.87
2023-03-15T16:14:59.141Z,19.55
2023-03-15T16:17:30.787Z,19.04
2023-03-15T16:20:00.510Z,18.67
2023-03-15T16:22:30.453Z,18.23
2023-03-15T16:25:02.243Z,17.86
2023-03-15T16:27:31.639Z,17.64
2023-03-15T16:30:02.848Z,17.47
2023-03-15T16:32:43.504Z,17.24
2023-03-15T16:35:18.750Z,16.90
2023-03-15T16:37:48.977Z,16.50
2023-03-15T16:40:26.158Z,16.19
2023-03-15T16:42:57.554Z,15.86
2023-03-15T16:45:28.345Z,15.68
2023-03-15T16:47:57.841Z,15.54
2023-03-15T16:50:29.182Z,15.37
2023-03-15T16:53:03.906Z,15.28
2023-03-15T16:55:35.110Z,15.06
2023-03-15T16:58:19.752Z,14.93
2023-03-15T17:00:49.759Z,14.74
2023-03-15T17:03:19.432Z,14.65
2023-03-15T17:05:49.159Z,14.57
2023-03-15T17:08:22.037Z,14.42
2023-03-15T17:10:52.220Z,14.20
2023-03-15T17:13:28.330Z,14.07
2023-03-15T17:15:57.775Z,13.98
2023-03-15T17:18:30.630Z,13.96
2023-03-15T17:21:00.596Z,13.89
2023-03-15T17:23:31.720Z,13.79
2023-03-15T17:26:01.750Z,13.65
2023-03-15T17:28:31.577Z,13.50
2023-03-15T17:31:20.288Z,13.36
2023-03-15T17:33:52.821Z,13.15
2023-03-15T17:36:26.640Z,13.07
2023-03-15T17:38:56.758Z,12.97
2023-03-15T17:41:31.855Z,12.85
2023-03-15T17:44:02.103Z,12.78
2023-03-15T17:46:33.561Z,12.75
2023-03-15T17:49:04.873Z,12.72
2023-03-15T17:51:37.338Z,12.69
2023-03-15T17:54:14.708Z,12.63
2023-03-15T17:56:44.862Z,12.55
2023-03-15T17:59:15.619Z,12.49
2023-03-15T18:01:49.196Z,12.40
2023-03-15T18:04:20.934Z,12.29
2023-03-15T18:06:50.156Z,12.19
2023-03-15T18:09:19.710Z,12.11
2023-03-15T18:11:48.765Z,12.01
2023-03-15T18:14:19.577Z,11.90
2023-03-15T18:16:49.460Z,11.84
2023-03-15T18:19:21.115Z,11.76
2023-03-15T18:21:51.224Z,11.69
2023-03-15T18:24:20.514Z,11.59
2023-03-15T18:26:49.667Z,11.47
2023-03-15T18:29:19.714Z,11.31
2023-03-15T18:31:49.848Z,11.19
2023-03-15T18:34:22.216Z,11.07
2023-03-15T18:36:51.190Z,10.94
2023-03-15T18:39:24.804Z,10.85
2023-03-15T18:41:54.596Z,10.76
2023-03-15T18:44:23.890Z,10.75
2023-03-15T18:46:54.671Z,10.81
2023-03-15T18:49:23.695Z,10.78
2023-03-15T18:51:56.857Z,10.72
2023-03-15T18:54:27.077Z,10.62
2023-03-15T18:56:56.329Z,10.54
2023-03-15T18:59:25.977Z,10.47
2023-03-15T19:01:55.349Z,10.48
2023-03-15T19:04:24.776Z,10.45
2023-03-15T19:06:53.773Z,10.39
2023-03-15T19:09:22.737Z,10.35
2023-03-15T19:11:51.773Z,10.29
2023-03-15T19:14:21.240Z,10.20
2023-03-15T19:16:50.599Z,10.12
2023-03-15T19:19:19.521Z,10.03
2023-03-15T19:21:49.114Z,9.95
2023-03-15T19:24:18.679Z,9.86
2023-03-15T19:26:49.562Z,9.77
2023-03-15T19:29:19.569Z,9.68
2023-03-15T19:31:50.051Z,9.60
2023-03-15T19:34:20.290Z,9.63
2023-03-15T19:36:50.333Z,9.63
2023-03-15T19:39:19.458Z,9.66
2023-03-15T19:41:49.409Z,9.63
2023-03-15T19:44:19.685Z,9.61
2023-03-15T19:46:51.335Z,9.57
2023-03-15T19:49:20.602Z,9.60
2023-03-15T19:51:50.967Z,9.66
2023-03-15T19:54:21.796Z,9.74
2023-03-15T19:56:52.825Z,9.79
2023-03-15T19:59:22.663Z,9.75
2023-03-15T20:01:53.350Z,9.72
2023-03-15T20:04:23.736Z,9.68
2023-03-15T20:06:53.942Z,9.62
2023-03-15T20:09:23.339Z,9.56
2023-03-15T20:11:54.178Z,9.53
2023-03-15T20:14:28.226Z,9.45
2023-03-15T20:16:59.815Z,9.35
2023-03-15T20:19:31.304Z,9.19
2023-03-15T20:22:01.962Z,9.03
2023-03-15T20:24:32.824Z,8.93
2023-03-15T20:27:06.149Z,8.88
2023-03-15T20:29:36.362Z,8.84
2023-03-15T20:32:06.528Z,8.88
2023-03-15T20:34:37.072Z,8.85
2023-03-15T20:37:09.273Z,8.76
2023-03-15T20:39:42.367Z,8.70
2023-03-15T20:42:14.147Z,8.62
2023-03-15T20:44:46.732Z,8.57
2023-03-15T20:47:18.313Z,8.51
2023-03-15T20:49:48.751Z,8.47
2023-03-15T20:52:19.593Z,8.45
2023-03-15T20:54:50.891Z,8.43
2023-03-15T20:57:20.385Z,8.39
2023-03-15T20:59:50.477Z,8.27
2023-03-15T21:02:20.551Z,8.16
2023-03-15T21:04:49.969Z,8.09
2023-03-15T21:07:20.594Z,8.10
2023-03-15T21:09:52.260Z,8.07
2023-03-15T21:12:22.124Z,7.96
2023-03-15T21:14:53.542Z,7.84
2023-03-15T21:17:24.918Z,7.75
2023-03-15T21:19:55.208Z,7.76
2023-03-15T21:22:25.079Z,7.69
2023-03-15T21:24:56.402Z,7.58
2023-03-15T21:27:26.978Z,7.47
2023-03-15T21:29:56.765Z,7.33
2023-03-15T21:32:26.585Z,7.23
2023-03-15T21:34:56.810Z,7.20
2023-03-15T21:37:27.735Z,7.17
2023-03-15T21:39:57.361Z,7.12
2023-03-15T21:42:28.890Z,7.12
2023-03-15T21:44:58.513Z,7.10
2023-03-15T21:47:29.441Z,7.16
2023-03-15T21:50:00.211Z,7.23
2023-03-15T21:52:30.487Z,7.31
2023-03-15T21:55:01.067Z,7.34
2023-03-15T21:57:34.506Z,7.38
2023-03-15T22:00:07.758Z,7.38
2023-03-15T22:02:38.196Z,7.37
2023-03-15T22:05:08.293Z,7.40
2023-03-15T22:07:42.139Z,7.44
2023-03-15T22:10:13.534Z,7.45
2023-03-15T22:12:45.082Z,7.48
2023-03-15T22:15:16.349Z,7.56
2023-03-15T22:17:47.598Z,7.62
2023-03-15T22:20:19.181Z,7.66
2023-03-15T22:22:50.043Z,7.66
2023-03-15T22:25:19.349Z,7.57
2023-03-15T22:27:48.824Z,7.51
2023-03-15T22:30:19.294Z,7.49
2023-03-15T22:32:48.362Z,7.42
2023-03-15T22:35:18.687Z,7.34
2023-03-15T22:37:49.937Z,7.23
2023-03-15T22:40:19.337Z,7.16
2023-03-15T22:42:50.392Z,7.12
2023-03-15T22:45:22.647Z,7.04
2023-03-15T22:47:51.789Z,7.00
2023-03-15T22:50:20.949Z,6.96
2023-03-15T22:52:52.576Z,6.87
2023-03-15T22:55:22.865Z,6.81
2023-03-15T22:57:52.112Z,6.79
2023-03-15T23:00:22.864Z,6.79
2023-03-15T23:02:52.970Z,6.73
2023-03-15T23:05:22.598Z,6.66
2023-03-15T23:07:51.882Z,6.64
2023-03-15T23:10:21.554Z,6.63
2023-03-15T23:12:51.863Z,6.66
2023-03-15T23:15:21.370Z,6.66
2023-03-15T23:17:50.372Z,6.65
2023-03-15T23:20:20.440Z,6.60
2023-03-15T23:22:50.773Z,6.53
2023-03-15T23:25:23.005Z,6.47
2023-03-15T23:27:52.580Z,6.48
2023-03-15T23:30:22.648Z,6.52
2023-03-15T23:32:57.939Z,6.52
2023-03-15T23:35:28.615Z,6.45
2023-03-15T23:37:58.610Z,6.36
2023-03-15T23:40:30.478Z,6.29
2023-03-15T23:42:59.603Z,6.24
2023-03-15T23:45:31.197Z,6.18
2023-03-15T23:48:03.436Z,6.09
2023-03-15T23:50:32.875Z,6.01
2023-03-15T23:53:02.048Z,5.93
2023-03-15T23:55:33.797Z,5.88
2023-03-15T23:58:04.100Z,5.89
